Nord Neptune — OZDR2 — position and weather

sailwx.info

Track history (hours):
 
Tides and Currents Weather Stations Pressure Air Temp Water Temp Dewpoint Dewpoint Depression Visibility Wind Speed Wind Dir Waves Ship Positions

Nord Neptune

Last reported at 2017-Nov-04 21:10 UTC. Time now 2017-Nov-18 12:32 UTC.
Position N 31°15' E 123°15'.
Warning: this ship's position is 13 days out of date.

Length 225 m; draft 6.3 m.

Type: Cargo ship. MMSI: 219194000.

Date/timePositionNaut miles runAvg speedWind from/ knotsBaromVisibWave heightAir tempDewpointWater temp
2017-Nov-04 21:10N 31°15' E 123°15'1410.7
2017-Nov-04 19:53N 31°08' E 123°01'610.8
2017-Nov-04 19:18N 31°03' E 122°56'411.3
2017-Nov-04 18:58N 31°00' E 122°53'2012.3
2017-Nov-04 17:21N 30°59' E 122°30'514.7
2017-Nov-04 17:00N 31°01' E 122°24'713.7
2017-Nov-04 16:30N 31°02' E 122°17'5 9.2
2017-Nov-04 16:00N 31°03' E 122°11'611.2
2017-Nov-04 15:30N 31°04' E 122°05'5 9.4
2017-Nov-04 15:00N 31°05' E 121°60'3 6.1
2017-Nov-04 14:30N 31°07' E 121°57'4 7.8
2017-Nov-04 14:00N 31°09' E 121°53'510.7
2017-Nov-04 13:30N 31°13' E 121°48'611.6
2017-Nov-04 13:00N 31°17' E 121°44'611.5
2017-Nov-04 12:30N 31°21' E 121°39'611.5
2017-Nov-04 12:00N 31°24' E 121°33'5 9.6
2017-Nov-04 11:30N 31°27' E 121°28'510.8
2017-Nov-04 11:00N 31°30' E 121°24'612.6
2017-Nov-04 10:31N 31°35' E 121°18'714.1
2017-Nov-04 10:00N 31°40' E 121°12'714.2
2017-Nov-04 09:31N 31°44' E 121°06'  
2017-Nov-01 00:52N 32°01' E 120°25'3 7.7
2017-Nov-01 00:26N 32°02' E 120°29'32 7.2
2017-Oct-31 20:00N 31°47' E 121°01'4 8.9
2017-Oct-31 19:30N 31°45' E 121°06'5 9.2
2017-Oct-31 19:00N 31°41' E 121°10'5 9.3
2017-Oct-31 18:30N 31°39' E 121°14'5 9.9
2017-Oct-31 18:01N 31°35' E 121°18'510.4
2017-Oct-31 17:31N 31°32' E 121°22'5 9.9
2017-Oct-31 17:01N 31°29' E 121°27'4 7.5
2017-Oct-31 16:31N 31°26' E 121°30'4 7.4
2017-Oct-31 16:01N 31°24' E 121°34'5 9.6
2017-Oct-31 15:31N 31°22' E 121°39'4 8.7
2017-Oct-31 15:01N 31°19' E 121°43'5 9.8
2017-Oct-31 14:30N 31°17' E 121°48'510.1
2017-Oct-31 14:01N 31°16' E 121°54'5 9.7
2017-Oct-31 13:30N 31°15' E 121°59'5 9.5
2017-Oct-31 13:00N 31°14' E 122°05'6 8.2
2017-Oct-31 12:16N 31°11' E 122°11'2 8.9
2017-Oct-31 12:00N 31°09' E 122°13'5 9.8
2017-Oct-31 11:30N 31°07' E 122°18'5 8.7
2017-Oct-31 10:56N 31°06' E 122°24'23 1.7
2017-Oct-30 21:27N 31°11' E 122°50'0 0.1
2017-Oct-30 18:57N 31°11' E 122°50'0 0.1
2017-Oct-30 18:18N 31°11' E 122°50'0 0.0
2017-Oct-30 17:55N 31°11' E 122°50'0 0.0
2017-Oct-30 17:27N 31°11' E 122°50'0 0.1
2017-Oct-30 16:59N 31°11' E 122°50'0 0.0
2017-Oct-30 16:31N 31°11' E 122°50'0 0.0
2017-Oct-30 15:58N 31°11' E 122°50'0 0.0
2017-Oct-30 15:27N 31°11' E 122°50'0 0.0
2017-Oct-30 15:01N 31°11' E 122°50'0 0.0
2017-Oct-30 14:29N 31°11' E 122°50'0 0.0
2017-Oct-30 12:48N 31°11' E 122°50'0 0.0
2017-Oct-30 07:04N 31°11' E 122°50'0 0.0
2017-Oct-30 06:55N 31°11' E 122°50'0 0.1
2017-Oct-30 06:20N 31°11' E 122°50'0 0.0
2017-Oct-30 03:16N 31°11' E 122°50'0 0.0
2017-Oct-30 02:55N 31°11' E 122°50'0 0.0
2017-Oct-30 02:27N 31°11' E 122°50'0 0.0
2017-Oct-30 02:01N 31°11' E 122°50'  
Track history (hours):
 
Tides and Currents Weather Stations Pressure Air Temp Water Temp Dewpoint Dewpoint Depression Visibility Wind Speed Wind Dir Waves Ship Positions

Nord Neptune

Last reported at 2017-Nov-04 21:10 UTC. Time now 2017-Nov-18 12:32 UTC.
Position N 31°15' E 123°15'.
Warning: this ship's position is 13 days out of date.

Length 225 m; draft 6.3 m.

Type: Cargo ship. MMSI: 219194000.

Date/timePositionNaut miles runAvg speedWind from/ knotsBaromVisibWave heightAir tempDewpointWater temp
2017-Nov-04 21:10N 31°15' E 123°15'1410.7
2017-Nov-04 19:53N 31°08' E 123°01'610.8
2017-Nov-04 19:18N 31°03' E 122°56'411.3
2017-Nov-04 18:58N 31°00' E 122°53'2012.3
2017-Nov-04 17:21N 30°59' E 122°30'514.7
2017-Nov-04 17:00N 31°01' E 122°24'713.7
2017-Nov-04 16:30N 31°02' E 122°17'5 9.2
2017-Nov-04 16:00N 31°03' E 122°11'611.2
2017-Nov-04 15:30N 31°04' E 122°05'5 9.4
2017-Nov-04 15:00N 31°05' E 121°60'3 6.1
2017-Nov-04 14:30N 31°07' E 121°57'4 7.8
2017-Nov-04 14:00N 31°09' E 121°53'510.7
2017-Nov-04 13:30N 31°13' E 121°48'611.6
2017-Nov-04 13:00N 31°17' E 121°44'611.5
2017-Nov-04 12:30N 31°21' E 121°39'611.5
2017-Nov-04 12:00N 31°24' E 121°33'5 9.6
2017-Nov-04 11:30N 31°27' E 121°28'510.8
2017-Nov-04 11:00N 31°30' E 121°24'612.6
2017-Nov-04 10:31N 31°35' E 121°18'714.1
2017-Nov-04 10:00N 31°40' E 121°12'714.2
2017-Nov-04 09:31N 31°44' E 121°06'  
2017-Nov-01 00:52N 32°01' E 120°25'3 7.7
2017-Nov-01 00:26N 32°02' E 120°29'32 7.2
2017-Oct-31 20:00N 31°47' E 121°01'4 8.9
2017-Oct-31 19:30N 31°45' E 121°06'5 9.2
2017-Oct-31 19:00N 31°41' E 121°10'5 9.3
2017-Oct-31 18:30N 31°39' E 121°14'5 9.9
2017-Oct-31 18:01N 31°35' E 121°18'510.4
2017-Oct-31 17:31N 31°32' E 121°22'5 9.9
2017-Oct-31 17:01N 31°29' E 121°27'4 7.5
2017-Oct-31 16:31N 31°26' E 121°30'4 7.4
2017-Oct-31 16:01N 31°24' E 121°34'5 9.6
2017-Oct-31 15:31N 31°22' E 121°39'4 8.7
2017-Oct-31 15:01N 31°19' E 121°43'5 9.8
2017-Oct-31 14:30N 31°17' E 121°48'510.1
2017-Oct-31 14:01N 31°16' E 121°54'5 9.7
2017-Oct-31 13:30N 31°15' E 121°59'5 9.5
2017-Oct-31 13:00N 31°14' E 122°05'6 8.2
2017-Oct-31 12:16N 31°11' E 122°11'2 8.9
2017-Oct-31 12:00N 31°09' E 122°13'5 9.8
2017-Oct-31 11:30N 31°07' E 122°18'5 8.7
2017-Oct-31 10:56N 31°06' E 122°24'23 1.7
2017-Oct-30 21:27N 31°11' E 122°50'0 0.1
2017-Oct-30 18:57N 31°11' E 122°50'0 0.1
2017-Oct-30 18:18N 31°11' E 122°50'0 0.0
2017-Oct-30 17:55N 31°11' E 122°50'0 0.0
2017-Oct-30 17:27N 31°11' E 122°50'0 0.1
2017-Oct-30 16:59N 31°11' E 122°50'0 0.0
2017-Oct-30 16:31N 31°11' E 122°50'0 0.0
2017-Oct-30 15:58N 31°11' E 122°50'0 0.0
2017-Oct-30 15:27N 31°11' E 122°50'0 0.0
2017-Oct-30 15:01N 31°11' E 122°50'0 0.0
2017-Oct-30 14:29N 31°11' E 122°50'0 0.0
2017-Oct-30 12:48N 31°11' E 122°50'0 0.0
2017-Oct-30 07:04N 31°11' E 122°50'0 0.0
2017-Oct-30 06:55N 31°11' E 122°50'0 0.1
2017-Oct-30 06:20N 31°11' E 122°50'0 0.0
2017-Oct-30 03:16N 31°11' E 122°50'0 0.0
2017-Oct-30 02:55N 31°11' E 122°50'0 0.0
2017-Oct-30 02:27N 31°11' E 122°50'0 0.0
2017-Oct-30 02:01N 31°11' E 122°50'  

Dump ship's entire track history